Time;durP1;ratioP1;P1;durP2;ratioP2;P2;SDS_P1;SDS_P2;PMS_P1;PMS_P2;Temp;Humidity;BMP_temperature;BMP_pressure;BME280_temperature;BME280_humidity;BME280_pressure;Samples;Min_cycle;Max_cycle;Signal;HPM_P1;HPM_P2
2020/12/02 00:01:09;;;;;;;;;;;;;20.20;97316.00;;;;5053803;28;1979;-43
2020/12/02 00:03:35;;;;;;;;;;;;;20.20;97315.00;;;;5054003;28;1068;-40
2020/12/02 00:06:01;;;;;;;;;;;;;20.10;97318.00;;;;5053892;28;1187;-42
2020/12/02 00:08:29;;;;;;;;;;;;;20.10;97323.00;;;;5053953;28;1021;-43
2020/12/02 00:10:55;;;;;;;;;;;;;20.10;97313.00;;;;5053472;28;1286;-44
2020/12/02 00:13:23;;;;;;;;;;;;;20.10;97320.00;;;;5053574;28;1126;-40
2020/12/02 00:15:49;;;;;;;;;;;;;20.10;97317.00;;;;5053748;28;1076;-42
2020/12/02 00:18:15;;;;;;;;;;;;;20.10;97315.00;;;;5045020;28;1157;-43
2020/12/02 00:20:41;;;;;;;;;;;;;20.00;97310.00;;;;5053772;28;1214;-43
2020/12/02 00:23:07;;;;;;;;;;;;;20.00;97312.00;;;;5053739;28;1906;-43
2020/12/02 00:25:33;;;;;;;;;;;;;20.00;97314.00;;;;5053783;28;1085;-43
2020/12/02 00:28:00;;;;;;;;;;;;;20.00;97315.00;;;;5053543;28;1068;-43
2020/12/02 00:30:27;;;;;;;;;;;;;20.00;97321.00;;;;5053356;28;1215;-40
2020/12/02 00:32:53;;;;;;;;;;;;;19.90;97311.00;;;;5053083;28;1124;-42
2020/12/02 00:35:20;;;;;;;;;;;;;19.90;97318.00;;;;5053162;28;1203;-43
2020/12/02 00:37:46;;;;;;;;;;;;;19.90;97322.00;;;;5053496;28;1201;-43
2020/12/02 00:40:12;;;;;;;;;;;;;19.90;97321.00;;;;5053090;28;1108;-43
2020/12/02 00:42:38;;;;;;;;;;;;;19.90;97328.00;;;;5053003;28;1988;-43
2020/12/02 00:45:04;;;;;;;;;;;;;19.90;97319.00;;;;5053188;28;1172;-43
2020/12/02 00:47:31;;;;;;;;;;;;;19.90;97318.00;;;;5053166;28;1067;-42
2020/12/02 00:49:57;;;;;;;;;;;;;19.90;97323.00;;;;5052373;28;1224;-43
2020/12/02 00:52:23;;;;;;;;;;;;;19.90;97316.00;;;;5053070;28;1182;-41
2020/12/02 00:54:49;;;;;;;;;;;;;19.80;97323.00;;;;5053030;28;1091;-43
2020/12/02 00:57:18;;;;;;;;;;;;;19.80;97316.00;;;;5052972;28;1080;-43
2020/12/02 00:59:43;;;;;;;;;;;;;19.80;97316.00;;;;5052676;28;1376;-42
2020/12/02 01:02:10;;;;;;;;;;;;;19.80;97314.00;;;;5052597;28;1902;-43
2020/12/02 01:04:37;;;;;;;;;;;;;19.80;97311.00;;;;5052627;28;1056;-43
2020/12/02 01:07:03;;;;;;;;;;;;;19.80;97314.00;;;;5052896;28;1033;-43
2020/12/02 01:09:29;;;;;;;;;;;;;19.80;97310.00;;;;5052711;28;1089;-43
2020/12/02 01:11:56;;;;;;;;;;;;;19.80;97316.00;;;;5052443;28;1290;-43
2020/12/02 01:14:25;;;;;;;;;;;;;19.70;97313.00;;;;5052726;28;1084;-42
2020/12/02 01:16:51;;;;;;;;;;;;;19.70;97307.00;;;;5052403;28;1076;-43
2020/12/02 01:19:18;;;;;;;;;;;;;19.70;97306.00;;;;5052315;28;1176;-43
2020/12/02 01:21:47;;;;;;;;;;;;;19.70;97302.00;;;;5052396;28;1981;-42
2020/12/02 01:24:15;;;;;;;;;;;;;19.70;97301.00;;;;5052537;28;1081;-42
2020/12/02 01:26:42;;;;;;;;;;;;;19.70;97299.00;;;;5052153;28;1176;-43
2020/12/02 01:29:16;;;;;;;;;;;;;19.60;97302.00;;;;5052422;28;1095;-42
2020/12/02 01:31:43;;;;;;;;;;;;;19.60;97302.00;;;;5051779;28;1224;-43
2020/12/02 01:34:09;;;;;;;;;;;;;19.60;97301.00;;;;5052557;28;1188;-42
2020/12/02 01:36:48;;;;;;;;;;;;;19.60;97301.00;;;;5052203;28;1021;-41
2020/12/02 01:39:14;;;;;;;;;;;;;19.60;97308.00;;;;5052285;28;1117;-44
2020/12/02 01:41:40;;;;;;;;;;;;;19.60;97313.00;;;;5051681;28;1988;-43
2020/12/02 01:44:06;;;;;;;;;;;;;19.60;97300.00;;;;5051846;28;1121;-43
2020/12/02 01:46:33;;;;;;;;;;;;;19.60;97295.00;;;;5051820;28;1203;-43
2020/12/02 01:49:07;;;;;;;;;;;;;19.60;97310.00;;;;5052352;28;1169;-42
2020/12/02 01:51:38;;;;;;;;;;;;;19.50;97308.00;;;;5051792;28;1276;-43
2020/12/02 01:54:05;;;;;;;;;;;;;19.50;97304.00;;;;5051941;28;1048;-42
2020/12/02 01:56:34;;;;;;;;;;;;;19.50;97302.00;;;;5051739;28;1121;-42
2020/12/02 01:59:04;;;;;;;;;;;;;19.50;97299.00;;;;5051664;28;1313;-43
2020/12/02 02:01:34;;;;;;;;;;;;;19.50;97298.00;;;;5051774;28;1997;-42
2020/12/02 02:04:00;;;;;;;;;;;;;19.50;97297.00;;;;5052032;28;1076;-43
2020/12/02 02:06:27;;;;;;;;;;;;;19.50;97289.00;;;;5051966;28;1025;-42
2020/12/02 02:08:53;;;;;;;;;;;;;19.50;97303.00;;;;5051874;28;1172;-43
2020/12/02 02:11:20;;;;;;;;;;;;;19.50;97307.00;;;;5051562;28;1215;-43
2020/12/02 02:14:01;;;;;;;;;;;;;19.40;97304.00;;;;5052152;28;1095;-43
2020/12/02 02:16:28;;;;;;;;;;;;;19.40;97300.00;;;;5052052;28;1076;-43
2020/12/02 02:18:54;;;;;;;;;;;;;19.40;97303.00;;;;5051870;28;1091;-44
2020/12/02 02:21:21;;;;;;;;;;;;;19.40;97301.00;;;;5051292;28;1248;-43
2020/12/02 02:23:47;;;;;;;;;;;;;19.40;97307.00;;;;5051386;28;1907;-43
2020/12/02 02:26:18;;;;;;;;;;;;;19.40;97306.00;;;;5051877;28;1056;-42
2020/12/02 02:28:47;;;;;;;;;;;;;19.40;97301.00;;;;5052048;28;1266;-43
2020/12/02 02:31:14;;;;;;;;;;;;;19.40;97295.00;;;;5051268;28;1203;-42
2020/12/02 02:33:40;;;;;;;;;;;;;19.40;97299.00;;;;5051767;28;1128;-41
2020/12/02 02:36:06;;;;;;;;;;;;;19.30;97314.00;;;;5051452;28;1028;-43
2020/12/02 02:38:32;;;;;;;;;;;;;19.30;97298.00;;;;5051816;28;1243;-43
2020/12/02 02:40:58;;;;;;;;;;;;;19.30;97303.00;;;;5051792;28;1213;-43
2020/12/02 02:43:25;;;;;;;;;;;;;19.30;97300.00;;;;5051668;28;1965;-43
2020/12/02 02:45:51;;;;;;;;;;;;;19.30;97303.00;;;;5051629;28;1067;-43
2020/12/02 02:48:17;;;;;;;;;;;;;19.30;97306.00;;;;5051689;28;1109;-42
2020/12/02 02:50:43;;;;;;;;;;;;;19.30;97295.00;;;;5051022;28;1309;-43
2020/12/02 02:53:13;;;;;;;;;;;;;19.30;97300.00;;;;5051623;28;1024;-43
2020/12/02 02:55:39;;;;;;;;;;;;;19.30;97298.00;;;;5051524;28;1124;-43
2020/12/02 02:58:05;;;;;;;;;;;;;19.30;97298.00;;;;5055455;28;1056;-43
2020/12/02 03:00:33;;;;;;;;;;;;;19.20;97294.00;;;;5055168;28;1377;-43
2020/12/02 03:02:58;;;;;;;;;;;;;19.20;97300.00;;;;5055247;28;1911;-43
2020/12/02 03:05:25;;;;;;;;;;;;;19.20;97289.00;;;;5055506;28;1089;-43
2020/12/02 03:07:51;;;;;;;;;;;;;19.20;97287.00;;;;5055252;28;1121;-43
2020/12/02 03:10:17;;;;;;;;;;;;;19.20;97279.00;;;;5055329;28;1085;-43
2020/12/02 03:12:43;;;;;;;;;;;;;19.20;97292.00;;;;5055520;28;1444;-41
2020/12/02 03:15:09;;;;;;;;;;;;;19.20;97288.00;;;;5055499;28;1102;-43
2020/12/02 03:17:36;;;;;;;;;;;;;19.20;97285.00;;;;5054890;28;1065;-43
2020/12/02 03:20:03;;;;;;;;;;;;;19.20;97285.00;;;;5054638;28;1029;-43
2020/12/02 03:22:29;;;;;;;;;;;;;19.10;97281.00;;;;5054709;28;1989;-42
2020/12/02 03:24:55;;;;;;;;;;;;;19.10;97279.00;;;;5054798;28;1069;-43
2020/12/02 03:27:21;;;;;;;;;;;;;19.10;97269.00;;;;5053337;28;1105;-43
2020/12/02 03:29:47;;;;;;;;;;;;;19.10;97272.00;;;;5054104;28;1092;-43
2020/12/02 03:32:13;;;;;;;;;;;;;19.10;97268.00;;;;5054297;28;1210;-43
2020/12/02 03:34:40;;;;;;;;;;;;;19.10;97280.00;;;;5054204;28;1002;-43
2020/12/02 03:37:06;;;;;;;;;;;;;19.10;97282.00;;;;5054324;28;1121;-42
2020/12/02 03:39:32;;;;;;;;;;;;;19.00;97272.00;;;;5054336;28;1014;-43
2020/12/02 03:41:58;;;;;;;;;;;;;19.00;97270.00;;;;5054307;28;1981;-43
2020/12/02 03:44:24;;;;;;;;;;;;;19.00;97273.00;;;;5054273;28;1180;-43
2020/12/02 03:46:50;;;;;;;;;;;;;19.00;97276.00;;;;5054180;28;1030;-43
2020/12/02 03:49:16;;;;;;;;;;;;;19.00;97277.00;;;;5053884;28;1125;-43
2020/12/02 03:51:42;;;;;;;;;;;;;19.00;97276.00;;;;5046207;28;1662;-42
2020/12/02 03:54:08;;;;;;;;;;;;;19.00;97269.00;;;;5053084;28;1196;-43
2020/12/02 03:56:34;;;;;;;;;;;;;19.00;97258.00;;;;5054168;28;1181;-43
2020/12/02 03:59:00;;;;;;;;;;;;;19.00;97269.00;;;;5053955;28;1376;-43
2020/12/02 04:01:26;;;;;;;;;;;;;19.00;97262.00;;;;5053856;28;1191;-43
2020/12/02 04:03:52;;;;;;;;;;;;;18.90;97259.00;;;;5053689;28;2343;-43
2020/12/02 04:06:18;;;;;;;;;;;;;18.90;97259.00;;;;5053895;28;1302;-43
2020/12/02 04:08:45;;;;;;;;;;;;;18.90;97264.00;;;;5053541;28;1013;-43
2020/12/02 04:11:11;;;;;;;;;;;;;18.90;97263.00;;;;5053724;28;1194;-41
2020/12/02 04:13:37;;;;;;;;;;;;;18.90;97261.00;;;;5053759;28;1129;-43
2020/12/02 04:16:03;;;;;;;;;;;;;18.90;97264.00;;;;5053796;28;1024;-43
2020/12/02 04:18:30;;;;;;;;;;;;;18.90;97268.00;;;;5053856;28;1079;-43
2020/12/02 04:20:56;;;;;;;;;;;;;18.90;97262.00;;;;5053709;28;1304;-43
2020/12/02 04:23:21;;;;;;;;;;;;;18.90;97256.00;;;;5053545;28;1989;-43
2020/12/02 04:25:48;;;;;;;;;;;;;18.90;97262.00;;;;5053580;28;1192;-43
2020/12/02 04:28:14;;;;;;;;;;;;;18.80;97258.00;;;;5053592;28;1199;-41
2020/12/02 04:30:40;;;;;;;;;;;;;18.80;97255.00;;;;5052999;28;1368;-43
2020/12/02 04:33:06;;;;;;;;;;;;;18.80;97256.00;;;;5053350;28;1124;-43
2020/12/02 04:35:32;;;;;;;;;;;;;18.80;97257.00;;;;5053572;28;1157;-43
2020/12/02 04:37:58;;;;;;;;;;;;;18.80;97257.00;;;;5053293;28;1071;-43
2020/12/02 04:40:25;;;;;;;;;;;;;18.80;97256.00;;;;5053072;28;1205;-42
2020/12/02 04:42:55;;;;;;;;;;;;;18.80;97263.00;;;;5053242;28;1977;-43
2020/12/02 04:45:21;;;;;;;;;;;;;18.80;97263.00;;;;5053121;28;993;-43
2020/12/02 04:47:47;;;;;;;;;;;;;18.80;97257.00;;;;5053295;28;1080;-43
2020/12/02 04:50:14;;;;;;;;;;;;;18.80;97262.00;;;;5052704;28;1188;-41
2020/12/02 04:52:40;;;;;;;;;;;;;18.80;97264.00;;;;5052703;28;1282;-43
2020/12/02 04:55:06;;;;;;;;;;;;;18.70;97262.00;;;;5053049;28;1080;-43
2020/12/02 04:57:32;;;;;;;;;;;;;18.70;97268.00;;;;5051644;28;1939;-42
2020/12/02 04:59:59;;;;;;;;;;;;;18.70;97255.00;;;;5045514;28;1642;-43
2020/12/02 05:02:25;;;;;;;;;;;;;18.70;97254.00;;;;5052554;28;1910;-43
2020/12/02 05:04:55;;;;;;;;;;;;;18.70;97258.00;;;;5052803;28;1124;-43
2020/12/02 05:07:21;;;;;;;;;;;;;18.70;97241.00;;;;5052638;28;1052;-43
2020/12/02 05:09:59;;;;;;;;;;;;;18.70;97239.00;;;;5052790;28;1185;-43
2020/12/02 05:12:26;;;;;;;;;;;;;18.70;97245.00;;;;5052062;28;1292;-43
2020/12/02 05:14:52;;;;;;;;;;;;;18.70;97241.00;;;;5052965;28;1017;-43
2020/12/02 05:17:20;;;;;;;;;;;;;18.60;97246.00;;;;5052559;28;1121;-43
2020/12/02 05:19:46;;;;;;;;;;;;;18.60;97241.00;;;;5051492;28;1089;-44
2020/12/02 05:22:13;;;;;;;;;;;;;18.60;97241.00;;;;5052221;28;1971;-42
2020/12/02 05:24:41;;;;;;;;;;;;;18.60;97260.00;;;;5052508;28;1185;-42
2020/12/02 05:27:07;;;;;;;;;;;;;18.60;97246.00;;;;5052032;28;1411;-43
2020/12/02 05:29:37;;;;;;;;;;;;;18.60;97252.00;;;;5052373;28;1036;-43
2020/12/02 05:32:03;;;;;;;;;;;;;18.60;97261.00;;;;5052461;28;1175;-43
2020/12/02 05:34:31;;;;;;;;;;;;;18.60;97262.00;;;;5052184;28;1125;-43
2020/12/02 05:36:57;;;;;;;;;;;;;18.60;97267.00;;;;5051967;28;1121;-43
2020/12/02 05:39:28;;;;;;;;;;;;;18.60;97268.00;;;;5052120;28;1077;-43
2020/12/02 05:41:54;;;;;;;;;;;;;18.60;97265.00;;;;5052540;28;1984;-42
2020/12/02 05:44:20;;;;;;;;;;;;;18.50;97268.00;;;;5052521;28;1033;-43
2020/12/02 05:46:47;;;;;;;;;;;;;18.50;97258.00;;;;5052142;28;1069;-43
2020/12/02 05:49:14;;;;;;;;;;;;;18.50;97253.00;;;;5051861;28;1029;-43
2020/12/02 05:51:41;;;;;;;;;;;;;18.50;97248.00;;;;5052078;28;1216;-43
2020/12/02 05:54:08;;;;;;;;;;;;;18.50;97245.00;;;;5051917;28;1176;-42
2020/12/02 05:56:34;;;;;;;;;;;;;18.50;97244.00;;;;5052443;28;985;-43
2020/12/02 05:59:01;;;;;;;;;;;;;18.50;97246.00;;;;5052228;28;1344;-43
2020/12/02 06:01:27;;;;;;;;;;;;;18.50;97247.00;;;;5051597;28;1195;-42
2020/12/02 06:03:54;;;;;;;;;;;;;18.50;97254.00;;;;5051444;28;1984;-43
2020/12/02 06:06:20;;;;;;;;;;;;;18.50;97247.00;;;;5052237;28;1021;-43
2020/12/02 06:08:47;;;;;;;;;;;;;18.50;97260.00;;;;5051483;28;1127;-43
2020/12/02 06:11:27;;;;;;;;;;;;;18.50;97258.00;;;;5051719;28;1286;-43
2020/12/02 06:13:54;;;;;;;;;;;;;18.40;97263.00;;;;5051895;28;1172;-43
2020/12/02 06:16:27;;;;;;;;;;;;;18.40;97259.00;;;;5051545;28;1197;-43
2020/12/02 06:18:53;;;;;;;;;;;;;18.40;97259.00;;;;5051642;28;1183;-42
2020/12/02 06:21:20;;;;;;;;;;;;;18.40;97256.00;;;;5051240;28;1224;-43
2020/12/02 06:23:50;;;;;;;;;;;;;18.40;97257.00;;;;5051354;28;1953;-42
2020/12/02 06:26:16;;;;;;;;;;;;;18.40;97261.00;;;;5051653;28;1109;-42
2020/12/02 06:28:48;;;;;;;;;;;;;18.40;97264.00;;;;5051104;28;1227;-43
2020/12/02 06:31:19;;;;;;;;;;;;;18.40;97267.00;;;;5051767;28;1364;-43
2020/12/02 06:33:45;;;;;;;;;;;;;18.40;97263.00;;;;5055174;28;1229;-43
2020/12/02 06:36:16;;;;;;;;;;;;;18.40;97268.00;;;;5055153;28;1322;-43
2020/12/02 06:38:42;;;;;;;;;;;;;18.40;97265.00;;;;5055710;28;1076;-41
2020/12/02 06:41:21;;;;;;;;;;;;;18.50;97268.00;;;;5055237;28;1211;-43
2020/12/02 06:43:48;;;;;;;;;;;;;18.60;97268.00;;;;5049890;28;2042;-44
2020/12/02 06:46:14;;;;;;;;;;;;;18.60;97265.00;;;;5051825;28;1693;-43
2020/12/02 06:48:40;;;;;;;;;;;;;18.70;97271.00;;;;5048409;28;1662;-43
2020/12/02 06:51:07;;;;;;;;;;;;;18.70;97269.00;;;;5053199;28;1686;-43
2020/12/02 06:53:33;;;;;;;;;;;;;18.70;97272.00;;;;5049548;28;1586;-43
2020/12/02 06:56:00;;;;;;;;;;;;;18.80;97275.00;;;;5049211;28;1991;-43
2020/12/02 06:58:27;;;;;;;;;;;;;18.80;97264.00;;;;5049026;28;1586;-43
2020/12/02 07:00:53;;;;;;;;;;;;;18.90;97272.00;;;;5051896;28;1357;-44
2020/12/02 07:03:21;;;;;;;;;;;;;18.90;97274.00;;;;5054549;28;1906;-43
2020/12/02 07:05:47;;;;;;;;;;;;;19.00;97266.00;;;;5054768;28;1304;-43
2020/12/02 07:08:15;;;;;;;;;;;;;19.00;97272.00;;;;5054665;28;1117;-43
2020/12/02 07:10:41;;;;;;;;;;;;;19.10;97272.00;;;;5053919;28;1731;-42
2020/12/02 07:13:08;;;;;;;;;;;;;19.10;97274.00;;;;5053655;28;1818;-43
2020/12/02 07:15:35;;;;;;;;;;;;;19.10;97265.00;;;;5054366;28;1588;-43
2020/12/02 07:18:11;;;;;;;;;;;;;19.20;97257.00;;;;5051471;28;1662;-43
2020/12/02 07:20:37;;;;;;;;;;;;;19.20;97257.00;;;;5052373;28;1584;-43
2020/12/02 07:23:03;;;;;;;;;;;;;19.30;97246.00;;;;5054510;28;1898;-43
2020/12/02 07:25:29;;;;;;;;;;;;;19.30;97255.00;;;;5049982;28;1785;-43
2020/12/02 07:27:55;;;;;;;;;;;;;19.40;97248.00;;;;5050502;28;1912;-43
2020/12/02 07:30:29;;;;;;;;;;;;;19.40;97248.00;;;;5049747;28;2027;-42
2020/12/02 07:32:56;;;;;;;;;;;;;19.50;97246.00;;;;5051585;28;1699;-41
2020/12/02 07:35:23;;;;;;;;;;;;;19.50;97239.00;;;;5053289;28;1634;-43
2020/12/02 07:37:49;;;;;;;;;;;;;19.50;97246.00;;;;5051845;28;1752;-43
2020/12/02 07:40:25;;;;;;;;;;;;;19.60;97237.00;;;;5053064;28;1821;-43
2020/12/02 07:42:51;;;;;;;;;;;;;19.60;97239.00;;;;5050877;28;1925;-43
2020/12/02 07:45:19;;;;;;;;;;;;;19.70;97227.00;;;;5052204;28;1691;-43
2020/12/02 07:47:48;;;;;;;;;;;;;19.70;97237.00;;;;5051938;28;1329;-43
2020/12/02 07:50:18;;;;;;;;;;;;;19.80;97248.00;;;;5052787;28;1199;-43
2020/12/02 07:52:44;;;;;;;;;;;;;19.80;97243.00;;;;5053843;28;1358;-43
2020/12/02 07:55:10;;;;;;;;;;;;;19.80;97252.00;;;;5053738;28;1206;-43
2020/12/02 07:57:36;;;;;;;;;;;;;19.90;97259.00;;;;5053927;28;1168;-42
2020/12/02 08:00:05;;;;;;;;;;;;;19.90;97254.00;;;;5049383;28;1670;-43
2020/12/02 08:02:31;;;;;;;;;;;;;19.90;97265.00;;;;5053866;28;1905;-40
2020/12/02 08:04:58;;;;;;;;;;;;;20.00;97270.00;;;;5053605;28;1783;-42
2020/12/02 08:07:40;;;;;;;;;;;;;20.00;97263.00;;;;5053394;28;1132;-43
2020/12/02 08:10:06;;;;;;;;;;;;;20.10;97259.00;;;;5053366;28;1211;-43
2020/12/02 08:12:32;;;;;;;;;;;;;20.10;97266.00;;;;5053514;28;1269;-43
2020/12/02 08:14:59;;;;;;;;;;;;;20.10;97270.00;;;;5053900;28;1037;-43
2020/12/02 08:17:25;;;;;;;;;;;;;20.20;97267.00;;;;5053048;28;1327;-41
2020/12/02 08:19:52;;;;;;;;;;;;;20.20;97279.00;;;;5053790;28;1053;-43
2020/12/02 08:22:24;;;;;;;;;;;;;20.20;97256.00;;;;5051791;28;2202;-43
2020/12/02 08:24:50;;;;;;;;;;;;;20.30;97262.00;;;;5053848;28;1143;-43
2020/12/02 08:27:17;;;;;;;;;;;;;20.30;97264.00;;;;5053646;28;1068;-43
2020/12/02 08:29:46;;;;;;;;;;;;;20.30;97261.00;;;;5052010;28;1886;-41
2020/12/02 08:32:15;;;;;;;;;;;;;20.40;97265.00;;;;5051617;28;1677;-43
2020/12/02 08:34:41;;;;;;;;;;;;;20.40;97269.00;;;;5053009;28;1064;-42
2020/12/02 08:37:28;;;;;;;;;;;;;20.50;97272.00;;;;5053503;28;1675;-43
2020/12/02 08:39:55;;;;;;;;;;;;;20.50;97278.00;;;;5045737;28;1842;-42
2020/12/02 08:42:25;;;;;;;;;;;;;20.50;97286.00;;;;5048510;28;1906;-42
2020/12/02 08:45:01;;;;;;;;;;;;;20.50;97282.00;;;;5052734;28;1164;-43
2020/12/02 08:47:27;;;;;;;;;;;;;20.60;97282.00;;;;5053180;28;1076;-43
2020/12/02 08:49:53;;;;;;;;;;;;;20.60;97281.00;;;;5052616;28;1210;-42
2020/12/02 08:52:19;;;;;;;;;;;;;20.60;97279.00;;;;5050858;28;1932;-43
2020/12/02 08:54:45;;;;;;;;;;;;;20.70;97276.00;;;;5049454;28;1165;-43
2020/12/02 08:57:12;;;;;;;;;;;;;20.70;97259.00;;;;5052575;28;1223;-43
2020/12/02 08:59:39;;;;;;;;;;;;;20.80;97270.00;;;;5051848;28;2115;-40
2020/12/02 09:02:09;;;;;;;;;;;;;20.90;97271.00;;;;5063381;28;9934;-38
2020/12/02 09:04:35;;;;;;;;;;;;;21.00;97263.00;;;;5063247;28;2125;-44
2020/12/02 09:07:01;;;;;;;;;;;;;21.10;97259.00;;;;5052565;28;1187;-35
2020/12/02 09:09:27;;;;;;;;;;;;;21.10;97261.00;;;;5052249;28;2258;-37
2020/12/02 09:11:54;;;;;;;;;;;;;21.20;97260.00;;;;5052268;28;1261;-39
2020/12/02 09:14:20;;;;;;;;;;;;;21.30;97266.00;;;;5052439;28;1105;-40
2020/12/02 09:16:47;;;;;;;;;;;;;21.30;97272.00;;;;5052095;28;2134;-42
2020/12/02 09:19:13;;;;;;;;;;;;;21.40;97265.00;;;;5051988;28;1073;-42
2020/12/02 09:21:40;;;;;;;;;;;;;21.50;97265.00;;;;5052109;28;1274;-42
2020/12/02 09:24:06;;;;;;;;;;;;;21.50;97260.00;;;;5052511;28;1975;-43
2020/12/02 09:26:33;;;;;;;;;;;;;21.50;97270.00;;;;5050588;28;1974;-44
2020/12/02 09:28:59;;;;;;;;;;;;;21.60;97260.00;;;;5051892;28;2256;-39
2020/12/02 09:31:26;;;;;;;;;;;;;21.60;97248.00;;;;5051995;28;2201;-35
2020/12/02 09:33:53;;;;;;;;;;;;;21.60;97245.00;;;;5049572;28;2082;-43
2020/12/02 09:36:19;;;;;;;;;;;;;21.70;97249.00;;;;5048409;28;1872;-42
2020/12/02 09:38:45;;;;;;;;;;;;;21.70;97244.00;;;;5047611;28;1012;-45
2020/12/02 09:41:26;;;;;;;;;;;;;21.70;97248.00;;;;5048150;28;1757;-43
2020/12/02 09:44:00;;;;;;;;;;;;;21.80;97244.00;;;;5049115;28;1898;-43
2020/12/02 09:46:26;;;;;;;;;;;;;21.80;97239.00;;;;5052321;28;1120;-45
2020/12/02 09:48:53;;;;;;;;;;;;;21.90;97246.00;;;;5052059;28;1029;-46
2020/12/02 09:51:20;;;;;;;;;;;;;21.90;97255.00;;;;5035769;28;9483;-45
2020/12/02 09:53:47;;;;;;;;;;;;;21.90;97246.00;;;;5032074;28;1087;-47
2020/12/02 09:56:13;;;;;;;;;;;;;22.00;97240.00;;;;5032121;28;1161;-43
2020/12/02 09:58:39;;;;;;;;;;;;;22.00;97237.00;;;;5032018;28;1084;-45
2020/12/02 10:01:09;;;;;;;;;;;;;22.00;97233.00;;;;5031755;28;1995;-45
2020/12/02 10:03:53;;;;;;;;;;;;;22.10;97235.00;;;;5031938;28;1904;-44
2020/12/02 10:06:25;;;;;;;;;;;;;22.10;97227.00;;;;5030981;28;2223;-44
2020/12/02 10:09:02;;;;;;;;;;;;;22.20;97217.00;;;;5040190;28;1802;-43
2020/12/02 10:11:30;;;;;;;;;;;;;22.20;97221.00;;;;5045974;28;1305;-41
2020/12/02 10:14:03;;;;;;;;;;;;;22.20;97212.00;;;;5050482;28;1059;-44
2020/12/02 10:16:30;;;;;;;;;;;;;22.30;97204.00;;;;5051533;28;1213;-40
2020/12/02 10:19:11;;;;;;;;;;;;;22.30;97198.00;;;;5050737;28;10006;-34
2020/12/02 10:21:45;;;;;;;;;;;;;22.30;97187.00;;;;5048779;28;9866;-42
2020/12/02 10:24:13;;;;;;;;;;;;;22.40;97183.00;;;;5049949;28;1909;-43
2020/12/02 10:26:57;;;;;;;;;;;;;22.40;97179.00;;;;5050906;28;1308;-43
2020/12/02 10:29:25;;;;;;;;;;;;;22.40;97170.00;;;;5049383;28;9727;-46
2020/12/02 10:31:52;;;;;;;;;;;;;22.40;97166.00;;;;5048613;28;1301;-36
2020/12/02 10:34:19;;;;;;;;;;;;;22.40;97168.00;;;;5048981;28;9756;-37
2020/12/02 10:36:46;;;;;;;;;;;;;22.50;97163.00;;;;5048129;28;1817;-45
2020/12/02 10:39:13;;;;;;;;;;;;;22.50;97161.00;;;;5049016;28;1262;-34
2020/12/02 10:41:44;;;;;;;;;;;;;22.50;97156.00;;;;5050599;28;1387;-47
2020/12/02 10:44:21;;;;;;;;;;;;;22.60;97144.00;;;;5050803;28;1906;-46
2020/12/02 10:46:53;;;;;;;;;;;;;22.60;97139.00;;;;5050159;28;1384;-44
2020/12/02 10:49:21;;;;;;;;;;;;;22.60;97133.00;;;;5045939;28;1165;-45
2020/12/02 10:51:48;;;;;;;;;;;;;22.70;97135.00;;;;5051057;28;1311;-50
2020/12/02 10:54:14;;;;;;;;;;;;;22.70;97138.00;;;;5049501;28;1269;-36
2020/12/02 10:56:41;;;;;;;;;;;;;22.70;97126.00;;;;5049735;28;1653;-37
2020/12/02 10:59:07;;;;;;;;;;;;;22.70;97119.00;;;;5050504;28;1166;-34
2020/12/02 11:01:33;;;;;;;;;;;;;21.30;97120.00;;;;5050377;28;1995;-34
2020/12/02 11:03:59;;;;;;;;;;;;;21.60;97111.00;;;;5046676;28;1965;-37
2020/12/02 11:06:34;;;;;;;;;;;;;22.30;97104.00;;;;5048228;28;1663;-40
2020/12/02 11:09:07;;;;;;;;;;;;;22.50;97105.00;;;;5050429;28;1370;-38
2020/12/02 11:11:40;;;;;;;;;;;;;22.50;97094.00;;;;5048928;28;1439;-38
2020/12/02 11:14:08;;;;;;;;;;;;;22.60;97088.00;;;;5050997;28;1142;-34
2020/12/02 11:16:35;;;;;;;;;;;;;22.60;97088.00;;;;5049330;28;1618;-39
2020/12/02 11:19:13;;;;;;;;;;;;;22.70;97091.00;;;;5052348;28;1117;-33
2020/12/02 11:21:42;;;;;;;;;;;;;22.70;97090.00;;;;5048469;28;1694;-39
2020/12/02 11:24:15;;;;;;;;;;;;;22.80;97075.00;;;;5053628;28;1975;-36
2020/12/02 11:26:41;;;;;;;;;;;;;22.80;97080.00;;;;5051771;28;1681;-37
2020/12/02 11:29:08;;;;;;;;;;;;;22.90;97081.00;;;;5046800;28;1657;-39
2020/12/02 11:31:40;;;;;;;;;;;;;22.90;97075.00;;;;5049755;28;1960;-40
2020/12/02 11:34:07;;;;;;;;;;;;;22.90;97079.00;;;;5054498;28;1196;-35
2020/12/02 11:36:47;;;;;;;;;;;;;22.90;97078.00;;;;5050200;28;1851;-35
2020/12/02 11:39:17;;;;;;;;;;;;;23.00;97061.00;;;;5052227;28;1301;-34
2020/12/02 11:41:45;;;;;;;;;;;;;23.00;97056.00;;;;5054815;28;1358;-34
2020/12/02 11:44:13;;;;;;;;;;;;;23.00;97052.00;;;;5052911;28;1906;-36
2020/12/02 11:46:39;;;;;;;;;;;;;23.00;97038.00;;;;5053793;28;1332;-35
2020/12/02 11:49:07;;;;;;;;;;;;;23.10;97035.00;;;;5054002;28;1245;-35
2020/12/02 11:51:34;;;;;;;;;;;;;23.10;97033.00;;;;5053827;28;1422;-33
2020/12/02 11:54:01;;;;;;;;;;;;;23.10;97027.00;;;;5053958;28;1249;-34
2020/12/02 11:56:28;;;;;;;;;;;;;23.10;97029.00;;;;5051286;28;1127;-33
2020/12/02 11:58:58;;;;;;;;;;;;;23.10;97028.00;;;;5053704;28;1194;-40
2020/12/02 12:01:26;;;;;;;;;;;;;23.10;97031.00;;;;5053398;28;1347;-40
2020/12/02 12:03:55;;;;;;;;;;;;;23.10;97019.00;;;;5050560;28;1977;-35
2020/12/02 12:06:21;;;;;;;;;;;;;23.00;97011.00;;;;5053522;28;1175;-35
2020/12/02 12:08:48;;;;;;;;;;;;;23.00;97006.00;;;;5052600;28;1814;-35
2020/12/02 12:11:19;;;;;;;;;;;;;23.00;97007.00;;;;5052998;28;1399;-35
2020/12/02 12:13:51;;;;;;;;;;;;;23.00;97002.00;;;;5054076;28;1162;-35
2020/12/02 12:16:18;;;;;;;;;;;;;22.90;97004.00;;;;5053787;28;1254;-35
2020/12/02 12:18:46;;;;;;;;;;;;;22.90;97008.00;;;;5052786;28;1597;-35
2020/12/02 12:21:16;;;;;;;;;;;;;22.90;97001.00;;;;5053422;28;1324;-35
2020/12/02 12:23:52;;;;;;;;;;;;;22.90;96987.00;;;;5053291;28;1903;-34
2020/12/02 12:26:18;;;;;;;;;;;;;22.90;96985.00;;;;5053683;28;1057;-35
2020/12/02 12:28:44;;;;;;;;;;;;;22.90;96975.00;;;;5052991;28;1041;-35
2020/12/02 12:31:14;;;;;;;;;;;;;22.90;96975.00;;;;5052363;28;1219;-35
2020/12/02 12:33:40;;;;;;;;;;;;;22.90;96983.00;;;;5050858;28;1633;-35
2020/12/02 12:36:08;;;;;;;;;;;;;22.90;96980.00;;;;5050480;28;1840;-34
2020/12/02 12:38:35;;;;;;;;;;;;;22.90;96977.00;;;;5051610;28;2154;-36
2020/12/02 12:41:02;;;;;;;;;;;;;23.00;96980.00;;;;5052360;28;1944;-40
2020/12/02 12:43:29;;;;;;;;;;;;;23.00;96973.00;;;;5052656;28;1983;-43
2020/12/02 12:45:57;;;;;;;;;;;;;23.10;96975.00;;;;5033495;28;1021;-40
2020/12/02 12:48:24;;;;;;;;;;;;;23.10;96972.00;;;;5033395;28;1302;-40
2020/12/02 12:50:51;;;;;;;;;;;;;23.10;96964.00;;;;5043639;28;1354;-37
2020/12/02 12:53:17;;;;;;;;;;;;;23.10;96960.00;;;;5052787;28;2194;-37
2020/12/02 12:55:43;;;;;;;;;;;;;23.10;96958.00;;;;5053104;28;956;-37
2020/12/02 12:58:09;;;;;;;;;;;;;23.20;96956.00;;;;5044132;28;1471;-41
2020/12/02 13:00:37;;;;;;;;;;;;;23.20;96965.00;;;;5052486;28;1329;-42
2020/12/02 13:03:10;;;;;;;;;;;;;23.20;96969.00;;;;5052352;28;1886;-36
2020/12/02 13:05:37;;;;;;;;;;;;;23.30;96962.00;;;;5052560;28;1308;-39
2020/12/02 13:08:03;;;;;;;;;;;;;23.30;96957.00;;;;5047535;28;1792;-37
2020/12/02 13:10:30;;;;;;;;;;;;;23.30;96962.00;;;;5043943;28;2222;-39
2020/12/02 13:13:02;;;;;;;;;;;;;23.30;96963.00;;;;5052568;28;1230;-36
2020/12/02 13:15:30;;;;;;;;;;;;;23.30;96963.00;;;;5052491;28;1128;-33
2020/12/02 13:17:56;;;;;;;;;;;;;23.30;96960.00;;;;5051703;28;1443;-35
2020/12/02 13:20:23;;;;;;;;;;;;;23.30;96969.00;;;;5050470;28;1522;-37
2020/12/02 13:22:54;;;;;;;;;;;;;23.20;96981.00;;;;5045782;28;1596;-37
2020/12/02 13:25:20;;;;;;;;;;;;;23.00;96977.00;;;;5041402;28;1899;-35
2020/12/02 13:27:51;;;;;;;;;;;;;20.80;96969.00;;;;5041450;28;1507;-46
2020/12/02 13:30:20;;;;;;;;;;;;;19.60;96968.00;;;;5044221;28;1240;-44
2020/12/02 13:32:48;;;;;;;;;;;;;20.00;96977.00;;;;5052077;28;1344;-36
2020/12/02 13:35:14;;;;;;;;;;;;;21.50;96974.00;;;;5051990;28;1156;-53
2020/12/02 13:37:40;;;;;;;;;;;;;22.20;96966.00;;;;5041906;28;1871;-50
2020/12/02 13:40:07;;;;;;;;;;;;;22.40;96961.00;;;;5051371;28;1115;-37
2020/12/02 13:42:33;;;;;;;;;;;;;22.50;96971.00;;;;5051125;28;1420;-38
2020/12/02 13:44:59;;;;;;;;;;;;;22.60;96975.00;;;;5051033;28;1969;-48
2020/12/02 13:47:25;;;;;;;;;;;;;22.70;96967.00;;;;5051363;28;1012;-43
2020/12/02 13:49:51;;;;;;;;;;;;;23.00;96977.00;;;;5051854;28;1177;-39
2020/12/02 13:52:19;;;;;;;;;;;;;23.10;96983.00;;;;5052024;28;1196;-37
2020/12/02 13:54:48;;;;;;;;;;;;;23.20;96988.00;;;;5052232;28;1060;-38